sensor_id;sensor_type;location;lat;lon;timestamp;temperature;humidity
23685;DHT22;12020;51.384;6.908;2024-01-15T00:30:38;2.00;99.90
23685;DHT22;12020;51.384;6.908;2024-01-15T00:49:54;2.00;99.90
23685;DHT22;12020;51.384;6.908;2024-01-15T01:25:08;2.10;99.90
23685;DHT22;12020;51.384;6.908;2024-01-15T01:36:55;2.10;99.90
23685;DHT22;12020;51.384;6.908;2024-01-15T01:42:47;2.10;99.90
23685;DHT22;12020;51.384;6.908;2024-01-15T01:45:19;2.20;99.90
23685;DHT22;12020;51.384;6.908;2024-01-15T01:47:53;2.20;99.90
23685;DHT22;12020;51.384;6.908;2024-01-15T01:56:49;2.10;99.90
23685;DHT22;12020;51.384;6.908;2024-01-15T01:59:47;2.20;99.90
23685;DHT22;12020;51.384;6.908;2024-01-15T02:05:37;2.20;99.90
23685;DHT22;12020;51.384;6.908;2024-01-15T02:15:08;2.20;99.90
23685;DHT22;12020;51.384;6.908;2024-01-15T02:30:32;2.20;99.90
23685;DHT22;12020;51.384;6.908;2024-01-15T02:33:05;2.30;99.90
23685;DHT22;12020;51.384;6.908;2024-01-15T03:12:11;2.30;99.90
23685;DHT22;12020;51.384;6.908;2024-01-15T03:18:01;2.30;99.90
23685;DHT22;12020;51.384;6.908;2024-01-15T03:26:30;2.40;99.90
23685;DHT22;12020;51.384;6.908;2024-01-15T03:32:19;2.40;99.90
23685;DHT22;12020;51.384;6.908;2024-01-15T03:35:04;2.30;99.90
23685;DHT22;12020;51.384;6.908;2024-01-15T03:47:09;2.30;99.90
23685;DHT22;12020;51.384;6.908;2024-01-15T03:52:49;2.30;99.90
23685;DHT22;12020;51.384;6.908;2024-01-15T03:55:33;2.30;99.90
23685;DHT22;12020;51.384;6.908;2024-01-15T03:58:30;2.40;99.90
23685;DHT22;12020;51.384;6.908;2024-01-15T04:01:08;2.30;99.90
23685;DHT22;12020;51.384;6.908;2024-01-15T04:06:28;2.30;99.90
23685;DHT22;12020;51.384;6.908;2024-01-15T04:15:53;2.40;99.90
23685;DHT22;12020;51.384;6.908;2024-01-15T04:25:05;2.40;99.90
23685;DHT22;12020;51.384;6.908;2024-01-15T04:34:42;2.40;99.90
23685;DHT22;12020;51.384;6.908;2024-01-15T04:37:10;2.30;99.90
23685;DHT22;12020;51.384;6.908;2024-01-15T04:39:39;2.40;99.90
23685;DHT22;12020;51.384;6.908;2024-01-15T04:49:04;2.40;99.90
23685;DHT22;12020;51.384;6.908;2024-01-15T05:00:02;2.40;99.90
23685;DHT22;12020;51.384;6.908;2024-01-15T05:05:55;2.40;99.90
23685;DHT22;12020;51.384;6.908;2024-01-15T05:08:27;2.40;99.90
23685;DHT22;12020;51.384;6.908;2024-01-15T05:14:16;2.40;99.90
23685;DHT22;12020;51.384;6.908;2024-01-15T05:16:51;2.30;99.90
23685;DHT22;12020;51.384;6.908;2024-01-15T05:32:45;2.30;99.90
23685;DHT22;12020;51.384;6.908;2024-01-15T05:38:41;2.30;99.90
23685;DHT22;12020;51.384;6.908;2024-01-15T05:47:05;2.30;99.90
23685;DHT22;12020;51.384;6.908;2024-01-15T05:49:54;2.40;99.90
23685;DHT22;12020;51.384;6.908;2024-01-15T05:55:56;2.40;99.90
23685;DHT22;12020;51.384;6.908;2024-01-15T05:58:25;2.40;99.90
23685;DHT22;12020;51.384;6.908;2024-01-15T06:17:43;2.50;99.90
23685;DHT22;12020;51.384;6.908;2024-01-15T06:26:28;2.50;99.90
23685;DHT22;12020;51.384;6.908;2024-01-15T06:29:11;2.50;99.90
23685;DHT22;12020;51.384;6.908;2024-01-15T06:31:37;2.50;99.90
23685;DHT22;12020;51.384;6.908;2024-01-15T06:34:04;2.50;99.90
23685;DHT22;12020;51.384;6.908;2024-01-15T06:36:33;2.40;99.90
23685;DHT22;12020;51.384;6.908;2024-01-15T06:38:59;2.50;99.90
23685;DHT22;12020;51.384;6.908;2024-01-15T06:44:47;2.50;99.90
23685;DHT22;12020;51.384;6.908;2024-01-15T06:47:13;2.50;99.90
23685;DHT22;12020;51.384;6.908;2024-01-15T06:49:46;2.50;99.90
23685;DHT22;12020;51.384;6.908;2024-01-15T06:55:56;2.50;99.90
23685;DHT22;12020;51.384;6.908;2024-01-15T07:08:29;2.60;99.90
23685;DHT22;12020;51.384;6.908;2024-01-15T07:11:04;2.60;99.90
23685;DHT22;12020;51.384;6.908;2024-01-15T07:13:32;2.70;99.90
23685;DHT22;12020;51.384;6.908;2024-01-15T07:15:59;2.70;99.90
23685;DHT22;12020;51.384;6.908;2024-01-15T07:18:26;2.70;99.90
23685;DHT22;12020;51.384;6.908;2024-01-15T07:20:52;2.60;99.90
23685;DHT22;12020;51.384;6.908;2024-01-15T07:23:18;2.70;99.90
23685;DHT22;12020;51.384;6.908;2024-01-15T07:25:44;2.60;99.90
23685;DHT22;12020;51.384;6.908;2024-01-15T07:28:09;2.60;99.90
23685;DHT22;12020;51.384;6.908;2024-01-15T07:30:35;2.60;99.90
23685;DHT22;12020;51.384;6.908;2024-01-15T07:33:05;2.50;99.90
23685;DHT22;12020;51.384;6.908;2024-01-15T07:35:32;2.60;99.90
23685;DHT22;12020;51.384;6.908;2024-01-15T07:37:59;2.50;99.90
23685;DHT22;12020;51.384;6.908;2024-01-15T07:40:24;2.50;99.90
23685;DHT22;12020;51.384;6.908;2024-01-15T07:42:51;2.50;99.90
23685;DHT22;12020;51.384;6.908;2024-01-15T07:45:17;2.40;99.90
23685;DHT22;12020;51.384;6.908;2024-01-15T07:47:43;2.40;99.90
23685;DHT22;12020;51.384;6.908;2024-01-15T07:50:12;2.40;99.90
23685;DHT22;12020;51.384;6.908;2024-01-15T07:53:15;2.40;99.90
23685;DHT22;12020;51.384;6.908;2024-01-15T07:55:41;2.40;99.90
23685;DHT22;12020;51.384;6.908;2024-01-15T07:58:07;2.40;99.90
23685;DHT22;12020;51.384;6.908;2024-01-15T08:00:32;2.40;99.90
23685;DHT22;12020;51.384;6.908;2024-01-15T08:02:58;2.40;99.90
23685;DHT22;12020;51.384;6.908;2024-01-15T08:05:25;2.40;99.90
23685;DHT22;12020;51.384;6.908;2024-01-15T08:07:50;2.30;99.90
23685;DHT22;12020;51.384;6.908;2024-01-15T08:10:16;2.30;99.90
23685;DHT22;12020;51.384;6.908;2024-01-15T08:12:42;2.30;99.90
23685;DHT22;12020;51.384;6.908;2024-01-15T08:15:07;2.30;99.90
23685;DHT22;12020;51.384;6.908;2024-01-15T08:17:33;2.30;99.90
23685;DHT22;12020;51.384;6.908;2024-01-15T08:19:59;2.30;99.90
23685;DHT22;12020;51.384;6.908;2024-01-15T08:22:26;2.30;99.90
23685;DHT22;12020;51.384;6.908;2024-01-15T08:24:51;2.40;99.90
23685;DHT22;12020;51.384;6.908;2024-01-15T08:27:17;2.30;99.90
23685;DHT22;12020;51.384;6.908;2024-01-15T08:29:43;2.30;99.90
23685;DHT22;12020;51.384;6.908;2024-01-15T08:32:09;2.20;99.90
23685;DHT22;12020;51.384;6.908;2024-01-15T08:34:39;2.30;99.90
23685;DHT22;12020;51.384;6.908;2024-01-15T08:37:05;2.40;99.90
23685;DHT22;12020;51.384;6.908;2024-01-15T08:39:30;2.30;99.90
23685;DHT22;12020;51.384;6.908;2024-01-15T08:41:56;2.30;99.90
23685;DHT22;12020;51.384;6.908;2024-01-15T08:44:21;2.20;99.90
23685;DHT22;12020;51.384;6.908;2024-01-15T08:46:47;2.20;99.90
23685;DHT22;12020;51.384;6.908;2024-01-15T08:49:13;2.20;99.90
23685;DHT22;12020;51.384;6.908;2024-01-15T08:51:38;2.20;99.90
23685;DHT22;12020;51.384;6.908;2024-01-15T08:54:04;2.20;99.90
23685;DHT22;12020;51.384;6.908;2024-01-15T08:56:30;2.20;99.90
23685;DHT22;12020;51.384;6.908;2024-01-15T08:58:55;2.20;99.90
23685;DHT22;12020;51.384;6.908;2024-01-15T09:01:21;2.10;99.90
23685;DHT22;12020;51.384;6.908;2024-01-15T09:03:49;2.20;99.90
23685;DHT22;12020;51.384;6.908;2024-01-15T09:06:16;2.20;99.90
23685;DHT22;12020;51.384;6.908;2024-01-15T09:08:41;2.20;99.90
23685;DHT22;12020;51.384;6.908;2024-01-15T09:11:08;2.10;99.90
23685;DHT22;12020;51.384;6.908;2024-01-15T09:34:07;2.10;99.90
23685;DHT22;12020;51.384;6.908;2024-01-15T09:46:26;2.10;99.90
23685;DHT22;12020;51.384;6.908;2024-01-15T09:52:26;2.10;99.90
23685;DHT22;12020;51.384;6.908;2024-01-15T09:58:36;2.20;99.90
23685;DHT22;12020;51.384;6.908;2024-01-15T10:01:23;2.20;99.90
23685;DHT22;12020;51.384;6.908;2024-01-15T10:03:50;2.30;99.90
23685;DHT22;12020;51.384;6.908;2024-01-15T10:06:16;2.30;99.90
23685;DHT22;12020;51.384;6.908;2024-01-15T10:08:46;2.20;99.90
23685;DHT22;12020;51.384;6.908;2024-01-15T10:11:30;2.30;99.90
23685;DHT22;12020;51.384;6.908;2024-01-15T10:13:57;2.30;99.90
23685;DHT22;12020;51.384;6.908;2024-01-15T10:16:23;2.30;99.90
23685;DHT22;12020;51.384;6.908;2024-01-15T10:18:49;2.30;99.90
23685;DHT22;12020;51.384;6.908;2024-01-15T10:21:15;2.30;99.90
23685;DHT22;12020;51.384;6.908;2024-01-15T10:23:42;2.30;99.90
23685;DHT22;12020;51.384;6.908;2024-01-15T10:26:08;2.60;99.90
23685;DHT22;12020;51.384;6.908;2024-01-15T10:28:34;2.50;99.90
23685;DHT22;12020;51.384;6.908;2024-01-15T10:31:00;2.30;99.90
23685;DHT22;12020;51.384;6.908;2024-01-15T10:33:26;2.30;99.90
23685;DHT22;12020;51.384;6.908;2024-01-15T10:35:56;2.30;99.90
23685;DHT22;12020;51.384;6.908;2024-01-15T10:38:23;2.30;99.90
23685;DHT22;12020;51.384;6.908;2024-01-15T10:40:56;2.30;99.90
23685;DHT22;12020;51.384;6.908;2024-01-15T10:43:23;2.30;99.90
23685;DHT22;12020;51.384;6.908;2024-01-15T10:45:50;2.40;99.90
23685;DHT22;12020;51.384;6.908;2024-01-15T10:48:17;2.40;99.90
23685;DHT22;12020;51.384;6.908;2024-01-15T10:50:44;2.40;99.90
23685;DHT22;12020;51.384;6.908;2024-01-15T10:53:12;2.50;99.90
23685;DHT22;12020;51.384;6.908;2024-01-15T10:55:38;2.60;99.90
23685;DHT22;12020;51.384;6.908;2024-01-15T10:58:05;2.50;99.90
23685;DHT22;12020;51.384;6.908;2024-01-15T11:00:34;2.50;99.90
23685;DHT22;12020;51.384;6.908;2024-01-15T11:03:01;2.50;99.90
23685;DHT22;12020;51.384;6.908;2024-01-15T11:05:29;2.50;99.90
23685;DHT22;12020;51.384;6.908;2024-01-15T11:07:58;2.50;99.90
23685;DHT22;12020;51.384;6.908;2024-01-15T11:10:47;2.50;99.90
23685;DHT22;12020;51.384;6.908;2024-01-15T11:13:41;2.50;99.90
23685;DHT22;12020;51.384;6.908;2024-01-15T11:16:11;2.50;99.90
23685;DHT22;12020;51.384;6.908;2024-01-15T11:21:25;2.50;99.90
23685;DHT22;12020;51.384;6.908;2024-01-15T11:23:57;2.50;99.90
23685;DHT22;12020;51.384;6.908;2024-01-15T11:29:08;2.60;99.90
23685;DHT22;12020;51.384;6.908;2024-01-15T11:34:10;2.60;99.90
23685;DHT22;12020;51.384;6.908;2024-01-15T11:42:02;2.60;99.90
23685;DHT22;12020;51.384;6.908;2024-01-15T11:44:29;2.60;99.90
23685;DHT22;12020;51.384;6.908;2024-01-15T11:52:20;2.70;99.90
23685;DHT22;12020;51.384;6.908;2024-01-15T11:55:01;2.60;99.90
23685;DHT22;12020;51.384;6.908;2024-01-15T11:57:51;2.70;99.90
23685;DHT22;12020;51.384;6.908;2024-01-15T12:00:17;2.70;99.90
23685;DHT22;12020;51.384;6.908;2024-01-15T12:02:45;2.70;99.90
23685;DHT22;12020;51.384;6.908;2024-01-15T12:05:12;2.60;99.90
23685;DHT22;12020;51.384;6.908;2024-01-15T12:07:51;2.60;99.90
23685;DHT22;12020;51.384;6.908;2024-01-15T12:10:20;2.60;99.90
23685;DHT22;12020;51.384;6.908;2024-01-15T12:13:07;2.60;99.90
23685;DHT22;12020;51.384;6.908;2024-01-15T12:15:35;2.70;99.90
23685;DHT22;12020;51.384;6.908;2024-01-15T12:18:02;2.70;99.90
23685;DHT22;12020;51.384;6.908;2024-01-15T12:20:31;2.70;99.90
23685;DHT22;12020;51.384;6.908;2024-01-15T12:22:58;2.60;99.90
23685;DHT22;12020;51.384;6.908;2024-01-15T12:25:25;2.70;99.90
23685;DHT22;12020;51.384;6.908;2024-01-15T12:27:53;2.70;99.90
23685;DHT22;12020;51.384;6.908;2024-01-15T12:30:20;2.70;99.90
23685;DHT22;12020;51.384;6.908;2024-01-15T12:32:46;2.70;99.90
23685;DHT22;12020;51.384;6.908;2024-01-15T12:35:13;2.80;99.90
23685;DHT22;12020;51.384;6.908;2024-01-15T12:37:40;2.80;99.90
23685;DHT22;12020;51.384;6.908;2024-01-15T12:40:07;2.80;99.90
23685;DHT22;12020;51.384;6.908;2024-01-15T12:42:44;2.80;99.90
23685;DHT22;12020;51.384;6.908;2024-01-15T12:45:11;2.80;99.90
23685;DHT22;12020;51.384;6.908;2024-01-15T12:47:39;2.80;99.90
23685;DHT22;12020;51.384;6.908;2024-01-15T12:50:11;2.80;99.90
23685;DHT22;12020;51.384;6.908;2024-01-15T12:52:39;2.90;99.90
23685;DHT22;12020;51.384;6.908;2024-01-15T12:55:07;3.00;99.90
23685;DHT22;12020;51.384;6.908;2024-01-15T12:57:34;2.90;99.90
23685;DHT22;12020;51.384;6.908;2024-01-15T12:59:59;3.00;99.90
23685;DHT22;12020;51.384;6.908;2024-01-15T13:02:25;3.00;99.90
23685;DHT22;12020;51.384;6.908;2024-01-15T13:04:53;3.00;99.90
23685;DHT22;12020;51.384;6.908;2024-01-15T13:07:19;3.00;99.90
23685;DHT22;12020;51.384;6.908;2024-01-15T13:09:45;3.10;99.90
23685;DHT22;12020;51.384;6.908;2024-01-15T13:12:11;3.10;99.90
23685;DHT22;12020;51.384;6.908;2024-01-15T13:14:37;3.00;99.90
23685;DHT22;12020;51.384;6.908;2024-01-15T13:17:03;2.90;99.90
23685;DHT22;12020;51.384;6.908;2024-01-15T13:19:29;2.90;99.90
23685;DHT22;12020;51.384;6.908;2024-01-15T13:21:54;3.00;99.90
23685;DHT22;12020;51.384;6.908;2024-01-15T13:24:21;3.00;99.90
23685;DHT22;12020;51.384;6.908;2024-01-15T13:26:48;2.90;99.90
23685;DHT22;12020;51.384;6.908;2024-01-15T13:29:13;2.90;99.90
23685;DHT22;12020;51.384;6.908;2024-01-15T13:31:40;2.80;99.90
23685;DHT22;12020;51.384;6.908;2024-01-15T13:34:06;3.10;99.90
23685;DHT22;12020;51.384;6.908;2024-01-15T13:36:32;3.10;99.90
23685;DHT22;12020;51.384;6.908;2024-01-15T13:38:58;3.10;99.90
23685;DHT22;12020;51.384;6.908;2024-01-15T13:41:25;3.20;99.90
23685;DHT22;12020;51.384;6.908;2024-01-15T13:43:54;3.10;99.90
23685;DHT22;12020;51.384;6.908;2024-01-15T13:46:24;3.20;99.90
23685;DHT22;12020;51.384;6.908;2024-01-15T13:48:53;3.20;99.90
23685;DHT22;12020;51.384;6.908;2024-01-15T13:51:22;3.20;99.90
23685;DHT22;12020;51.384;6.908;2024-01-15T13:53:51;3.20;99.90
23685;DHT22;12020;51.384;6.908;2024-01-15T13:56:18;3.10;99.90
23685;DHT22;12020;51.384;6.908;2024-01-15T13:58:44;3.10;99.90
23685;DHT22;12020;51.384;6.908;2024-01-15T14:01:09;3.10;99.90
23685;DHT22;12020;51.384;6.908;2024-01-15T14:03:36;3.10;99.90
23685;DHT22;12020;51.384;6.908;2024-01-15T14:06:01;3.10;99.90
23685;DHT22;12020;51.384;6.908;2024-01-15T14:08:45;3.10;99.90
23685;DHT22;12020;51.384;6.908;2024-01-15T14:11:10;3.20;99.90
23685;DHT22;12020;51.384;6.908;2024-01-15T14:13:37;3.10;99.90
23685;DHT22;12020;51.384;6.908;2024-01-15T14:16:03;3.10;99.90
23685;DHT22;12020;51.384;6.908;2024-01-15T14:18:29;3.00;99.90
23685;DHT22;12020;51.384;6.908;2024-01-15T14:20:54;2.90;99.90
23685;DHT22;12020;51.384;6.908;2024-01-15T14:23:21;3.00;99.90
23685;DHT22;12020;51.384;6.908;2024-01-15T14:25:47;2.80;99.90
23685;DHT22;12020;51.384;6.908;2024-01-15T14:28:12;2.80;99.90
23685;DHT22;12020;51.384;6.908;2024-01-15T14:30:39;2.80;99.90
23685;DHT22;12020;51.384;6.908;2024-01-15T14:33:06;2.80;99.90
23685;DHT22;12020;51.384;6.908;2024-01-15T14:35:32;2.70;99.90
23685;DHT22;12020;51.384;6.908;2024-01-15T14:37:57;2.80;99.90
23685;DHT22;12020;51.384;6.908;2024-01-15T14:40:27;2.80;99.90
23685;DHT22;12020;51.384;6.908;2024-01-15T14:42:54;2.80;99.90
23685;DHT22;12020;51.384;6.908;2024-01-15T14:45:20;2.80;99.90
23685;DHT22;12020;51.384;6.908;2024-01-15T14:47:46;2.90;99.90
23685;DHT22;12020;51.384;6.908;2024-01-15T14:50:13;2.90;99.90
23685;DHT22;12020;51.384;6.908;2024-01-15T14:52:39;2.80;99.90
23685;DHT22;12020;51.384;6.908;2024-01-15T14:55:07;2.90;99.90
23685;DHT22;12020;51.384;6.908;2024-01-15T14:57:34;2.90;99.90
23685;DHT22;12020;51.384;6.908;2024-01-15T14:59:59;2.90;99.90
23685;DHT22;12020;51.384;6.908;2024-01-15T15:02:27;2.80;99.90
23685;DHT22;12020;51.384;6.908;2024-01-15T15:04:54;2.80;99.90
23685;DHT22;12020;51.384;6.908;2024-01-15T15:07:24;2.80;99.90
23685;DHT22;12020;51.384;6.908;2024-01-15T15:09:49;2.80;99.90
23685;DHT22;12020;51.384;6.908;2024-01-15T15:12:16;2.80;99.90
23685;DHT22;12020;51.384;6.908;2024-01-15T15:14:42;2.70;99.90
23685;DHT22;12020;51.384;6.908;2024-01-15T15:17:08;2.80;99.90
23685;DHT22;12020;51.384;6.908;2024-01-15T15:19:35;2.70;99.90
23685;DHT22;12020;51.384;6.908;2024-01-15T15:22:02;2.60;99.90
23685;DHT22;12020;51.384;6.908;2024-01-15T15:24:28;2.70;99.90
23685;DHT22;12020;51.384;6.908;2024-01-15T15:26:56;2.70;99.90
23685;DHT22;12020;51.384;6.908;2024-01-15T15:29:23;2.60;99.90
23685;DHT22;12020;51.384;6.908;2024-01-15T15:31:50;2.60;99.90
23685;DHT22;12020;51.384;6.908;2024-01-15T15:34:17;2.60;99.90
23685;DHT22;12020;51.384;6.908;2024-01-15T15:36:43;2.60;99.90
23685;DHT22;12020;51.384;6.908;2024-01-15T15:39:08;2.70;99.90
23685;DHT22;12020;51.384;6.908;2024-01-15T15:41:34;2.60;99.90
23685;DHT22;12020;51.384;6.908;2024-01-15T15:44:00;2.60;99.90
23685;DHT22;12020;51.384;6.908;2024-01-15T15:46:27;2.60;99.90
23685;DHT22;12020;51.384;6.908;2024-01-15T15:49:01;2.50;99.90
23685;DHT22;12020;51.384;6.908;2024-01-15T15:51:34;2.40;99.90
23685;DHT22;12020;51.384;6.908;2024-01-15T15:54:03;2.40;99.90
23685;DHT22;12020;51.384;6.908;2024-01-15T15:56:35;2.40;99.90
23685;DHT22;12020;51.384;6.908;2024-01-15T15:59:04;2.40;99.90
23685;DHT22;12020;51.384;6.908;2024-01-15T16:01:32;2.40;99.90
23685;DHT22;12020;51.384;6.908;2024-01-15T16:03:59;2.40;99.90
23685;DHT22;12020;51.384;6.908;2024-01-15T16:06:24;2.40;99.90
23685;DHT22;12020;51.384;6.908;2024-01-15T16:08:50;2.40;99.90
23685;DHT22;12020;51.384;6.908;2024-01-15T16:11:17;2.40;99.90
23685;DHT22;12020;51.384;6.908;2024-01-15T16:13:43;2.50;99.90
23685;DHT22;12020;51.384;6.908;2024-01-15T16:16:09;2.40;99.90
23685;DHT22;12020;51.384;6.908;2024-01-15T16:18:34;2.30;99.90
23685;DHT22;12020;51.384;6.908;2024-01-15T16:21:01;2.30;99.90
23685;DHT22;12020;51.384;6.908;2024-01-15T16:23:27;2.50;99.90
23685;DHT22;12020;51.384;6.908;2024-01-15T16:25:53;2.20;99.90
23685;DHT22;12020;51.384;6.908;2024-01-15T16:28:40;2.30;99.90
23685;DHT22;12020;51.384;6.908;2024-01-15T16:31:14;2.20;99.90
23685;DHT22;12020;51.384;6.908;2024-01-15T16:33:39;2.20;99.90
23685;DHT22;12020;51.384;6.908;2024-01-15T16:36:05;2.20;99.90
23685;DHT22;12020;51.384;6.908;2024-01-15T16:38:32;2.20;99.90
23685;DHT22;12020;51.384;6.908;2024-01-15T16:40:58;2.20;99.90
23685;DHT22;12020;51.384;6.908;2024-01-15T16:43:24;2.30;99.90
23685;DHT22;12020;51.384;6.908;2024-01-15T16:45:52;2.30;99.90
23685;DHT22;12020;51.384;6.908;2024-01-15T16:48:22;2.30;99.90
23685;DHT22;12020;51.384;6.908;2024-01-15T16:50:48;2.30;99.90
23685;DHT22;12020;51.384;6.908;2024-01-15T16:53:14;2.50;99.90
23685;DHT22;12020;51.384;6.908;2024-01-15T16:55:47;2.30;99.90
23685;DHT22;12020;51.384;6.908;2024-01-15T16:58:14;2.40;99.90
23685;DHT22;12020;51.384;6.908;2024-01-15T17:00:47;2.40;99.90
23685;DHT22;12020;51.384;6.908;2024-01-15T17:03:13;2.40;99.90
23685;DHT22;12020;51.384;6.908;2024-01-15T17:05:39;2.50;99.90
23685;DHT22;12020;51.384;6.908;2024-01-15T17:08:05;2.50;99.90
23685;DHT22;12020;51.384;6.908;2024-01-15T17:10:32;2.60;99.90
23685;DHT22;12020;51.384;6.908;2024-01-15T17:12:59;2.40;99.90
23685;DHT22;12020;51.384;6.908;2024-01-15T17:15:29;2.40;99.90
23685;DHT22;12020;51.384;6.908;2024-01-15T17:17:55;2.30;99.90
23685;DHT22;12020;51.384;6.908;2024-01-15T17:20:21;2.30;99.90
23685;DHT22;12020;51.384;6.908;2024-01-15T17:22:46;2.30;99.90
23685;DHT22;12020;51.384;6.908;2024-01-15T17:25:12;2.30;99.90
23685;DHT22;12020;51.384;6.908;2024-01-15T17:27:38;2.20;99.90
23685;DHT22;12020;51.384;6.908;2024-01-15T17:33:13;2.20;99.90
23685;DHT22;12020;51.384;6.908;2024-01-15T17:36:10;2.20;99.90
23685;DHT22;12020;51.384;6.908;2024-01-15T17:38:36;2.20;99.90
23685;DHT22;12020;51.384;6.908;2024-01-15T17:41:02;2.20;99.90
23685;DHT22;12020;51.384;6.908;2024-01-15T17:43:27;2.30;99.90
23685;DHT22;12020;51.384;6.908;2024-01-15T17:45:53;2.50;99.90
23685;DHT22;12020;51.384;6.908;2024-01-15T17:48:21;2.30;99.90
23685;DHT22;12020;51.384;6.908;2024-01-15T17:50:46;2.30;99.90
23685;DHT22;12020;51.384;6.908;2024-01-15T17:53:12;2.40;99.90
23685;DHT22;12020;51.384;6.908;2024-01-15T17:55:41;2.30;99.90
23685;DHT22;12020;51.384;6.908;2024-01-15T17:58:08;2.50;99.90
23685;DHT22;12020;51.384;6.908;2024-01-15T18:00:34;2.50;99.90
23685;DHT22;12020;51.384;6.908;2024-01-15T18:03:00;2.40;99.90
23685;DHT22;12020;51.384;6.908;2024-01-15T18:08:51;2.40;99.90
23685;DHT22;12020;51.384;6.908;2024-01-15T18:12:05;2.40;99.90
23685;DHT22;12020;51.384;6.908;2024-01-15T18:35:54;2.30;99.90
23685;DHT22;12020;51.384;6.908;2024-01-15T18:41:44;2.30;99.90
23685;DHT22;12020;51.384;6.908;2024-01-15T18:44:13;2.30;99.90
23685;DHT22;12020;51.384;6.908;2024-01-15T18:46:39;2.20;99.90
23685;DHT22;12020;51.384;6.908;2024-01-15T18:49:42;2.40;99.90
23685;DHT22;12020;51.384;6.908;2024-01-15T18:59:51;2.70;99.90
23685;DHT22;12020;51.384;6.908;2024-01-15T19:13:08;2.50;99.90
23685;DHT22;12020;51.384;6.908;2024-01-15T19:15:37;2.30;99.90
23685;DHT22;12020;51.384;6.908;2024-01-15T19:24:38;3.50;99.90
23685;DHT22;12020;51.384;6.908;2024-01-15T19:27:08;3.20;99.90
23685;DHT22;12020;51.384;6.908;2024-01-15T19:56:15;2.30;99.90
23685;DHT22;12020;51.384;6.908;2024-01-15T19:59:04;2.40;99.90
23685;DHT22;12020;51.384;6.908;2024-01-15T20:04:49;2.20;99.90
23685;DHT22;12020;51.384;6.908;2024-01-15T20:07:52;2.50;99.90
23685;DHT22;12020;51.384;6.908;2024-01-15T20:10:18;2.20;99.90
23685;DHT22;12020;51.384;6.908;2024-01-15T20:12:47;2.20;99.90
23685;DHT22;12020;51.384;6.908;2024-01-15T20:18:41;2.10;99.90
23685;DHT22;12020;51.384;6.908;2024-01-15T20:21:27;2.10;99.90
23685;DHT22;12020;51.384;6.908;2024-01-15T20:24:01;2.10;99.90
23685;DHT22;12020;51.384;6.908;2024-01-15T20:29:58;2.10;99.90
23685;DHT22;12020;51.384;6.908;2024-01-15T20:35:37;2.10;99.90
23685;DHT22;12020;51.384;6.908;2024-01-15T20:38:02;2.00;99.90
23685;DHT22;12020;51.384;6.908;2024-01-15T20:40:37;2.00;99.90
23685;DHT22;12020;51.384;6.908;2024-01-15T20:43:13;1.90;99.90
23685;DHT22;12020;51.384;6.908;2024-01-15T20:45:40;2.00;99.90
23685;DHT22;12020;51.384;6.908;2024-01-15T20:48:35;2.00;99.90
23685;DHT22;12020;51.384;6.908;2024-01-15T20:51:02;2.00;99.90
23685;DHT22;12020;51.384;6.908;2024-01-15T20:56:31;2.00;99.90
23685;DHT22;12020;51.384;6.908;2024-01-15T20:59:17;2.00;99.90
23685;DHT22;12020;51.384;6.908;2024-01-15T21:01:47;2.00;99.90
23685;DHT22;12020;51.384;6.908;2024-01-15T21:07:44;2.10;99.90
23685;DHT22;12020;51.384;6.908;2024-01-15T21:23:10;2.10;99.90
23685;DHT22;12020;51.384;6.908;2024-01-15T21:25:45;2.10;99.90
23685;DHT22;12020;51.384;6.908;2024-01-15T21:28:26;2.10;99.90
23685;DHT22;12020;51.384;6.908;2024-01-15T21:30:56;2.10;99.90
23685;DHT22;12020;51.384;6.908;2024-01-15T21:33:23;2.10;99.90
23685;DHT22;12020;51.384;6.908;2024-01-15T21:36:06;2.00;99.90
23685;DHT22;12020;51.384;6.908;2024-01-15T21:38:35;2.00;99.90
23685;DHT22;12020;51.384;6.908;2024-01-15T21:41:10;2.10;99.90
23685;DHT22;12020;51.384;6.908;2024-01-15T21:43:35;2.00;99.90
23685;DHT22;12020;51.384;6.908;2024-01-15T21:46:03;2.10;99.90
23685;DHT22;12020;51.384;6.908;2024-01-15T21:48:32;2.00;99.90
23685;DHT22;12020;51.384;6.908;2024-01-15T21:57:57;2.00;99.90
23685;DHT22;12020;51.384;6.908;2024-01-15T22:00:23;2.00;99.90
23685;DHT22;12020;51.384;6.908;2024-01-15T22:02:56;2.00;99.90
23685;DHT22;12020;51.384;6.908;2024-01-15T22:05:27;2.00;99.90
23685;DHT22;12020;51.384;6.908;2024-01-15T22:07:55;2.00;99.90
23685;DHT22;12020;51.384;6.908;2024-01-15T22:10:31;2.00;99.90
23685;DHT22;12020;51.384;6.908;2024-01-15T22:13:16;2.00;99.90
23685;DHT22;12020;51.384;6.908;2024-01-15T22:15:41;2.30;99.90
23685;DHT22;12020;51.384;6.908;2024-01-15T22:18:09;2.10;99.90
23685;DHT22;12020;51.384;6.908;2024-01-15T22:20:36;2.10;99.90
23685;DHT22;12020;51.384;6.908;2024-01-15T22:23:02;2.20;99.90
23685;DHT22;12020;51.384;6.908;2024-01-15T22:25:28;2.10;99.90
23685;DHT22;12020;51.384;6.908;2024-01-15T22:27:53;2.20;99.90
23685;DHT22;12020;51.384;6.908;2024-01-15T22:30:19;2.10;99.90
23685;DHT22;12020;51.384;6.908;2024-01-15T22:32:45;2.30;99.90
23685;DHT22;12020;51.384;6.908;2024-01-15T22:35:10;2.20;99.90
23685;DHT22;12020;51.384;6.908;2024-01-15T22:37:36;2.20;99.90
23685;DHT22;12020;51.384;6.908;2024-01-15T22:40:28;2.20;99.90
23685;DHT22;12020;51.384;6.908;2024-01-15T22:42:53;2.20;99.90
23685;DHT22;12020;51.384;6.908;2024-01-15T22:45:19;2.20;99.90
23685;DHT22;12020;51.384;6.908;2024-01-15T22:47:48;2.10;99.90
23685;DHT22;12020;51.384;6.908;2024-01-15T22:50:23;2.10;99.90
23685;DHT22;12020;51.384;6.908;2024-01-15T22:53:14;2.10;99.90
23685;DHT22;12020;51.384;6.908;2024-01-15T22:55:41;2.20;99.90
23685;DHT22;12020;51.384;6.908;2024-01-15T22:58:07;2.10;99.90
23685;DHT22;12020;51.384;6.908;2024-01-15T23:00:36;2.20;99.90
23685;DHT22;12020;51.384;6.908;2024-01-15T23:03:14;2.20;99.90
23685;DHT22;12020;51.384;6.908;2024-01-15T23:05:45;2.20;99.90
23685;DHT22;12020;51.384;6.908;2024-01-15T23:08:30;2.30;99.90
23685;DHT22;12020;51.384;6.908;2024-01-15T23:11:01;2.30;99.90
23685;DHT22;12020;51.384;6.908;2024-01-15T23:13:38;2.10;99.90
23685;DHT22;12020;51.384;6.908;2024-01-15T23:19:26;2.10;99.90
23685;DHT22;12020;51.384;6.908;2024-01-15T23:21:53;2.10;99.90
23685;DHT22;12020;51.384;6.908;2024-01-15T23:24:47;2.00;99.90
23685;DHT22;12020;51.384;6.908;2024-01-15T23:27:31;1.90;99.90
23685;DHT22;12020;51.384;6.908;2024-01-15T23:30:01;1.90;99.90
23685;DHT22;12020;51.384;6.908;2024-01-15T23:32:30;1.90;99.90
23685;DHT22;12020;51.384;6.908;2024-01-15T23:34:57;2.00;99.90
23685;DHT22;12020;51.384;6.908;2024-01-15T23:41:06;2.00;99.90
23685;DHT22;12020;51.384;6.908;2024-01-15T23:43:33;2.00;99.90
23685;DHT22;12020;51.384;6.908;2024-01-15T23:46:22;2.10;99.90
23685;DHT22;12020;51.384;6.908;2024-01-15T23:48:51;2.00;99.90
23685;DHT22;12020;51.384;6.908;2024-01-15T23:51:21;2.00;99.90
23685;DHT22;12020;51.384;6.908;2024-01-15T23:53:56;2.30;99.90
23685;DHT22;12020;51.384;6.908;2024-01-15T23:56:22;2.00;99.90
23685;DHT22;12020;51.384;6.908;2024-01-15T23:59:06;2.20;99.90
